Terminal Aerodrome Forecast
Issued by NWS Nashville, TN

Current Version | Previous Version | Text Only | Print | Product List | Glossary On
Versions: 1 2 3 4 5 6 7 8 9 10 11 12 13 14 15 16 17 18 19 20 21
000
FTUS44 KOHX 281735
TAFCSV
TAF
KCSV 281735Z 2818/2918 28005KT P6SM VCTS SCT050CB BKN250
     FM290100 00000KT P6SM SCT050 BKN120 BKN250
      TEMPO 2910/2912 5SM BR HZ
     FM291400 32004KT P6SM SCT100 BKN250=

USA.gov is the U.S. government's official web portal to all federal, state and local government web resources and services.